Time;durP1;ratioP1;P1;durP2;ratioP2;P2;SDS_P1;SDS_P2;PMS_P1;PMS_P2;Temp;Humidity;BMP_temperature;BMP_pressure;BME280_temperature;BME280_humidity;BME280_pressure;Samples;Min_cycle;Max_cycle;Signal;HPM_P1;HPM_P2
2022/07/14 00:01:01;;;;;;;5.97;3.05;;;;;;;21.45;43.09;98492.38;5092087;28;20383;-76
2022/07/14 00:03:27;;;;;;;5.03;2.53;;;;;;;21.41;42.78;98495.09;5092682;28;20020;-76
2022/07/14 00:05:53;;;;;;;9.18;4.22;;;;;;;21.38;42.98;98493.06;5092002;28;20107;-77
2022/07/14 00:08:18;;;;;;;10.65;4.60;;;;;;;21.35;43.01;98491.00;5092381;28;20055;-77
2022/07/14 00:10:44;;;;;;;12.35;4.78;;;;;;;21.32;42.97;98486.97;5092289;28;20023;-76
2022/07/14 00:13:10;;;;;;;6.10;3.35;;;;;;;21.31;42.99;98488.16;5092698;28;20510;-74
2022/07/14 00:15:35;;;;;;;8.60;4.63;;;;;;;21.30;43.49;98480.97;5092987;28;20088;-73
2022/07/14 00:18:01;;;;;;;9.00;4.05;;;;;;;21.27;43.57;98481.69;5073778;28;20483;-74
2022/07/14 00:20:26;;;;;;;7.97;4.00;;;;;;;21.25;43.51;98482.03;5073209;28;20048;-72
2022/07/14 00:22:53;;;;;;;6.70;3.72;;;;;;;21.24;43.21;98474.06;5091925;28;20471;-73
2022/07/14 00:25:19;;;;;;;11.52;3.97;;;;;;;21.25;43.62;98478.47;5091669;28;20124;-74
2022/07/14 00:27:46;;;;;;;14.45;6.03;;;;;;;21.24;43.57;98479.63;5074133;28;20467;-72
2022/07/14 00:30:11;;;;;;;12.85;5.47;;;;;;;21.25;43.72;98472.88;5092333;28;20396;-73
2022/07/14 00:32:36;;;;;;;11.82;5.50;;;;;;;21.25;43.54;98472.88;5088576;28;20024;-73
2022/07/14 00:35:06;;;;;;;10.00;5.15;;;;;;;21.24;43.58;98472.06;5092163;28;20024;-72
2022/07/14 00:37:32;;;;;;;13.27;5.72;;;;;;;21.23;43.80;98475.22;5074017;28;20040;-73
2022/07/14 00:39:58;;;;;;;17.08;6.57;;;;;;;21.24;43.65;98474.84;5092000;28;20040;-74
2022/07/14 00:42:33;;;;;;;17.20;6.63;;;;;;;21.21;43.74;98467.22;5091767;28;20108;-74
2022/07/14 00:45:03;;;;;;;14.75;5.45;;;;;;;21.23;43.86;98469.66;5092191;28;20024;-73
2022/07/14 00:47:28;;;;;;;14.35;5.50;;;;;;;21.24;43.86;98466.47;5092420;28;20114;-74
2022/07/14 00:49:55;;;;;;;18.15;6.88;;;;;;;21.22;43.99;98468.81;5091428;28;20066;-73
2022/07/14 00:52:22;;;;;;;11.70;4.95;;;;;;;21.19;43.67;98465.97;5091036;28;20025;-74
2022/07/14 00:54:48;;;;;;;13.32;5.45;;;;;;;21.17;43.71;98458.00;5091271;28;20094;-73
2022/07/14 00:57:13;;;;;;;12.40;4.82;;;;;;;21.16;43.72;98458.34;5072817;28;20173;-73
2022/07/14 00:59:39;;;;;;;10.77;4.78;;;;;;;21.14;43.68;98461.50;5089239;28;20035;-73
2022/07/14 01:02:05;;;;;;;13.02;5.45;;;;;;;21.12;43.80;98452.72;5072119;28;20042;-73
2022/07/14 01:04:30;;;;;;;11.27;5.03;;;;;;;21.12;43.76;98453.50;5090469;28;20039;-74
2022/07/14 01:06:56;;;;;;;11.95;4.93;;;;;;;21.13;43.63;98454.31;5072975;28;20062;-74
2022/07/14 01:09:22;;;;;;;11.07;4.57;;;;;;;21.12;44.09;98447.94;5090687;28;20031;-73
2022/07/14 01:11:47;;;;;;;8.63;4.40;;;;;;;21.10;43.77;98444.69;5090162;28;20105;-73
2022/07/14 01:14:12;;;;;;;5.60;2.90;;;;;;;21.12;43.59;98452.72;5089242;28;20031;-73
2022/07/14 01:16:38;;;;;;;8.23;4.88;;;;;;;21.11;43.56;98449.09;5090466;28;20024;-73
2022/07/14 01:19:03;;;;;;;5.80;3.53;;;;;;;21.12;43.41;98444.34;5090402;28;20113;-73
2022/07/14 01:21:29;;;;;;;5.20;2.88;;;;;;;21.14;43.49;98453.16;5090262;28;20020;-74
2022/07/14 01:23:54;;;;;;;8.85;3.03;;;;;;;21.14;43.64;98446.75;5090393;28;20052;-74
2022/07/14 01:26:20;;;;;;;7.95;4.20;;;;;;;21.11;43.43;98448.31;5090879;28;20086;-73
2022/07/14 01:28:45;;;;;;;4.93;3.05;;;;;;;21.12;43.36;98442.34;5090659;28;20024;-73
2022/07/14 01:31:11;;;;;;;5.20;3.35;;;;;;;21.11;43.24;98451.88;5090686;28;20028;-73
2022/07/14 01:33:36;;;;;;;6.50;3.30;;;;;;;21.11;43.12;98445.50;5090523;28;20063;-74
2022/07/14 01:36:02;;;;;;;5.93;3.15;;;;;;;21.10;43.27;98444.69;5089683;28;20020;-75
2022/07/14 01:38:27;;;;;;;7.28;4.18;;;;;;;21.11;43.18;98442.72;5089455;28;20016;-75
2022/07/14 01:40:53;;;;;;;5.18;3.22;;;;;;;21.10;42.98;98433.53;5089151;28;20039;-75
2022/07/14 01:43:18;;;;;;;6.38;3.78;;;;;;;21.11;42.92;98439.94;5089209;28;20368;-74
2022/07/14 01:45:44;;;;;;;5.47;3.50;;;;;;;21.11;43.29;98437.94;5089264;28;20021;-74
2022/07/14 01:48:09;;;;;;;6.88;3.25;;;;;;;21.10;43.04;98436.34;5088650;28;20123;-75
2022/07/14 01:50:34;;;;;;;7.85;3.45;;;;;;;21.07;43.09;98445.44;5088847;28;20513;-74
2022/07/14 01:53:00;;;;;;;7.22;3.40;;;;;;;21.07;43.17;98439.06;5088500;28;20027;-75
2022/07/14 01:55:25;;;;;;;7.18;3.40;;;;;;;21.05;43.03;98427.47;5089007;28;20026;-75
2022/07/14 01:57:51;;;;;;;6.40;3.60;;;;;;;21.04;42.55;98431.44;5089758;28;20754;-74
2022/07/14 02:00:17;;;;;;;5.57;3.20;;;;;;;21.02;42.85;98433.78;5089396;28;20138;-75
2022/07/14 02:02:42;;;;;;;6.90;3.42;;;;;;;21.01;43.31;98426.59;5089312;28;20024;-74
2022/07/14 02:05:09;;;;;;;7.00;3.33;;;;;;;21.00;42.96;98428.53;5088844;28;20499;-75
2022/07/14 02:07:35;;;;;;;7.32;3.78;;;;;;;21.01;43.19;98441.31;5087420;28;20542;-74
2022/07/14 02:12:45;;;;;;;6.05;3.13;;;;;;;21.00;43.06;98424.97;5087614;28;20035;-75
2022/07/14 02:15:10;;;;;;;6.43;2.83;;;;;;;20.99;43.15;98435.28;5087938;28;20032;-76
2022/07/14 02:17:37;;;;;;;5.47;2.53;;;;;;;21.02;42.97;98433.78;5070451;28;20495;-75
2022/07/14 02:20:03;;;;;;;3.17;1.98;;;;;;;21.03;43.04;98438.97;5088634;28;20055;-75
2022/07/14 02:22:29;;;;;;;4.65;2.22;;;;;;;21.03;42.93;98433.41;5088016;28;20024;-75
2022/07/14 02:24:54;;;;;;;4.60;1.80;;;;;;;21.03;42.99;98436.19;5088435;28;20043;-75
2022/07/14 02:27:19;;;;;;;4.25;2.38;;;;;;;21.04;43.04;98435.00;5088797;28;20035;-75
2022/07/14 02:29:45;;;;;;;6.47;3.92;;;;;;;21.03;43.21;98436.19;5088558;28;20032;-75
2022/07/14 02:32:11;;;;;;;3.17;1.90;;;;;;;21.05;43.05;98444.19;5085192;28;20676;-75
2022/07/14 02:34:36;;;;;;;2.90;2.05;;;;;;;21.04;43.17;98443.38;5087970;28;20066;-76
2022/07/14 02:37:02;;;;;;;2.83;1.65;;;;;;;21.03;43.23;98444.53;5069955;28;20020;-77
2022/07/14 02:39:27;;;;;;;3.55;1.80;;;;;;;21.02;43.21;98445.72;5088334;28;20028;-76
2022/07/14 02:41:53;;;;;;;2.15;1.75;;;;;;;20.99;43.41;98443.66;5088491;28;20460;-76
2022/07/14 02:44:19;;;;;;;3.22;2.10;;;;;;;20.98;43.35;98439.28;5088769;28;20023;-75
2022/07/14 02:46:44;;;;;;;4.28;2.08;;;;;;;21.00;43.58;98438.91;5088800;28;20392;-74
2022/07/14 02:49:09;;;;;;;3.78;1.88;;;;;;;21.00;43.46;98427.75;5088274;28;20036;-75
2022/07/14 02:51:35;;;;;;;3.45;1.90;;;;;;;20.97;43.60;98430.09;5086967;28;20023;-75
2022/07/14 02:54:00;;;;;;;3.47;1.70;;;;;;;20.95;43.66;98432.44;5088303;28;20064;-75
2022/07/14 02:56:26;;;;;;;3.05;1.60;;;;;;;20.91;43.62;98433.56;5088286;28;20408;-75
2022/07/14 02:58:51;;;;;;;5.35;1.75;;;;;;;20.90;43.62;98438.31;5087236;28;20475;-76
2022/07/14 03:01:17;;;;;;;9.13;2.03;;;;;;;20.90;43.55;98429.94;5087305;28;20032;-76
2022/07/14 03:03:43;;;;;;;4.40;1.90;;;;;;;20.91;43.71;98439.13;5087373;28;20336;-75
2022/07/14 03:06:15;;;;;;;3.28;2.08;;;;;;;20.89;43.75;98442.28;5088065;28;20047;-75
2022/07/14 03:08:41;;;;;;;2.30;1.77;;;;;;;20.88;43.90;98437.06;5087978;28;20043;-75
2022/07/14 03:11:07;;;;;;;2.72;1.80;;;;;;;20.87;43.79;98439.03;5087883;28;20020;-75
2022/07/14 03:13:33;;;;;;;4.47;1.95;;;;;;;20.86;43.99;98440.22;5087342;28;20028;-76
2022/07/14 03:15:59;;;;;;;2.75;1.73;;;;;;;20.86;43.86;98436.63;5088544;28;20032;-75
2022/07/14 03:18:25;;;;;;;3.30;2.00;;;;;;;20.86;43.58;98442.22;5088146;28;20145;-76
2022/07/14 03:20:54;;;;;;;2.40;1.58;;;;;;;20.88;43.83;98443.44;5091493;28;20034;-75
2022/07/14 03:23:21;;;;;;;3.15;1.63;;;;;;;20.89;44.17;98453.41;5092105;28;20073;-75
2022/07/14 03:25:47;;;;;;;3.63;1.63;;;;;;;20.90;44.17;98448.66;5092026;28;20032;-76
2022/07/14 03:28:13;;;;;;;2.90;1.65;;;;;;;20.91;44.05;98442.72;5091462;28;20039;-76
2022/07/14 03:30:39;;;;;;;2.92;1.60;;;;;;;20.91;44.10;98441.91;5091905;28;20387;-76
2022/07/14 03:33:05;;;;;;;4.07;1.77;;;;;;;20.89;43.90;98433.91;5091656;28;20232;-75
2022/07/14 03:35:31;;;;;;;5.15;1.77;;;;;;;20.91;43.85;98437.13;5092158;28;20479;-75
2022/07/14 03:37:56;;;;;;;3.08;1.90;;;;;;;20.93;44.04;98434.78;5091167;28;20028;-75
2022/07/14 03:40:22;;;;;;;3.25;1.85;;;;;;;20.95;44.46;98435.22;5091498;28;20039;-75
2022/07/14 03:42:47;;;;;;;2.13;1.70;;;;;;;20.97;44.42;98435.69;5091145;28;20023;-76
2022/07/14 03:45:13;;;;;;;1.98;1.70;;;;;;;20.99;44.35;98429.72;5091645;28;20024;-76
2022/07/14 03:47:38;;;;;;;4.18;1.83;;;;;;;21.01;44.33;98440.53;5091373;28;20028;-76
2022/07/14 03:50:04;;;;;;;3.65;1.90;;;;;;;21.01;44.26;98446.88;5091772;28;20036;-75
2022/07/14 03:52:30;;;;;;;3.65;2.00;;;;;;;21.03;44.40;98454.91;5090947;28;20473;-76
2022/07/14 03:54:56;;;;;;;4.80;1.88;;;;;;;21.01;44.69;98458.03;5091337;28;20028;-75
2022/07/14 03:57:22;;;;;;;4.47;1.85;;;;;;;21.01;44.61;98457.25;5091431;28;21656;-75
2022/07/14 03:59:48;;;;;;;5.97;1.73;;;;;;;21.04;44.45;98454.53;5072643;28;20051;-76
2022/07/14 04:02:13;;;;;;;2.53;1.90;;;;;;;21.04;44.77;98443.38;5090812;28;20117;-75
2022/07/14 04:04:40;;;;;;;3.90;1.98;;;;;;;21.04;44.79;98443.38;5091202;28;20169;-76
2022/07/14 04:07:05;;;;;;;7.63;2.10;;;;;;;21.04;44.29;98439.78;5091120;28;20024;-76
2022/07/14 04:09:31;;;;;;;3.63;2.00;;;;;;;21.05;44.77;98442.19;5091513;28;20475;-75
2022/07/14 04:11:57;;;;;;;3.25;1.90;;;;;;;21.07;44.77;98441.84;5091840;28;20464;-76
2022/07/14 04:14:24;;;;;;;4.65;2.10;;;;;;;21.05;44.78;98439.41;5091201;28;20031;-76
2022/07/14 04:16:52;;;;;;;2.83;1.80;;;;;;;21.05;44.95;98452.56;5091685;28;20027;-76
2022/07/14 04:19:18;;;;;;;3.78;2.00;;;;;;;21.06;44.96;98454.97;5091517;28;20040;-75
2022/07/14 04:21:44;;;;;;;8.05;2.08;;;;;;;21.07;45.23;98453.78;5091907;28;20058;-76
2022/07/14 04:24:10;;;;;;;3.80;1.98;;;;;;;21.06;45.05;98443.81;5091918;28;20052;-75
2022/07/14 04:26:40;;;;;;;6.55;2.45;;;;;;;21.07;45.04;98451.00;5091660;28;20027;-75
2022/07/14 04:29:05;;;;;;;;;;;;;;;21.08;44.94;98444.25;5092207;28;20020;-75
2022/07/14 04:31:31;;;;;;;4.97;2.28;;;;;;;21.10;45.16;98455.84;5089790;28;20390;-76
2022/07/14 04:33:56;;;;;;;5.07;2.38;;;;;;;21.08;45.19;98449.81;5091327;28;20043;-75
2022/07/14 04:36:23;;;;;;;3.03;2.03;;;;;;;21.11;45.09;98448.31;5091498;28;20027;-75
2022/07/14 04:38:48;;;;;;;5.15;1.95;;;;;;;21.14;45.08;98447.56;5091823;28;20083;-75
2022/07/14 04:41:14;;;;;;;3.90;2.08;;;;;;;21.19;45.25;98455.66;5091409;28;20030;-75
2022/07/14 04:43:39;;;;;;;5.57;2.33;;;;;;;21.24;45.52;98449.75;5091445;28;20095;-75
2022/07/14 04:46:05;;;;;;;5.88;2.33;;;;;;;21.27;45.58;98453.78;5092017;28;20047;-75
2022/07/14 04:48:31;;;;;;;7.65;2.80;;;;;;;21.32;45.31;98444.31;5093145;28;20036;-75
2022/07/14 04:53:41;;;;;;;8.32;2.40;;;;;;;21.49;45.50;98445.81;5091188;28;20046;-75
2022/07/14 04:56:06;;;;;;;4.15;1.90;;;;;;;21.54;45.17;98445.53;5091157;28;20036;-76
2022/07/14 04:58:32;;;;;;;3.72;2.10;;;;;;;21.60;45.43;98455.22;5072468;28;20024;-75
2022/07/14 05:01:00;;;;;;;4.18;2.03;;;;;;;21.64;45.61;98446.91;5090475;28;20012;-76
2022/07/14 05:03:27;;;;;;;5.80;2.28;;;;;;;21.69;45.39;98444.66;5090671;28;20430;-76
2022/07/14 05:05:52;;;;;;;3.05;2.10;;;;;;;21.70;45.71;98451.03;5090829;28;20028;-76
2022/07/14 05:08:18;;;;;;;3.33;1.85;;;;;;;21.71;45.58;98455.44;5090773;28;20053;-76
2022/07/14 05:10:43;;;;;;;3.80;2.00;;;;;;;21.68;45.42;98454.19;5090448;28;20073;-75
2022/07/14 05:13:09;;;;;;;2.60;1.70;;;;;;;21.65;45.49;98454.13;5090463;28;20468;-75
2022/07/14 05:15:34;;;;;;;4.47;1.60;;;;;;;21.61;45.71;98456.81;5090404;28;20468;-77
2022/07/14 05:18:00;;;;;;;3.45;2.00;;;;;;;21.55;45.54;98461.09;5090897;28;20024;-75
2022/07/14 05:20:25;;;;;;;4.18;1.70;;;;;;;21.51;45.71;98460.22;5090435;28;20047;-76
2022/07/14 05:22:51;;;;;;;3.83;2.03;;;;;;;21.46;45.97;98460.50;5089621;28;20345;-75
2022/07/14 05:25:16;;;;;;;4.25;1.83;;;;;;;21.41;46.31;98465.22;5090374;28;20028;-76
2022/07/14 05:27:42;;;;;;;3.45;1.85;;;;;;;21.37;46.35;98466.34;5090518;28;20020;-76
2022/07/14 05:30:09;;;;;;;3.13;1.98;;;;;;;21.36;46.69;98467.50;5090701;28;20016;-76
2022/07/14 05:32:36;;;;;;;3.63;1.85;;;;;;;21.38;46.92;98462.38;5089360;28;20031;-76
2022/07/14 05:35:02;;;;;;;2.83;1.95;;;;;;;21.38;46.80;98463.19;5090345;28;20028;-76
2022/07/14 05:37:27;;;;;;;4.20;1.95;;;;;;;21.44;46.89;98474.03;5090586;28;20028;-75
2022/07/14 05:39:53;;;;;;;4.35;1.80;;;;;;;21.52;46.83;98467.41;5071997;28;20097;-75
2022/07/14 05:42:20;;;;;;;3.63;2.00;;;;;;;21.59;46.79;98470.34;5089080;28;20028;-76
2022/07/14 05:44:45;;;;;;;3.30;1.90;;;;;;;21.67;46.92;98468.50;5071568;28;20020;-76
2022/07/14 05:47:11;;;;;;;5.47;2.00;;;;;;;21.72;46.95;98471.00;5089815;28;20046;-76
2022/07/14 05:49:40;;;;;;;4.03;2.17;;;;;;;21.81;46.90;98471.56;5090088;28;20027;-75
2022/07/14 05:52:05;;;;;;;4.90;1.73;;;;;;;21.91;46.83;98478.50;5089960;28;20518;-75
2022/07/14 05:54:31;;;;;;;3.45;1.70;;;;;;;22.01;46.62;98475.09;5090256;28;20024;-75
2022/07/14 05:56:57;;;;;;;4.22;1.85;;;;;;;22.11;46.61;98472.88;5089996;28;20056;-75
2022/07/14 05:59:22;;;;;;;4.00;1.70;;;;;;;22.23;46.46;98480.25;5089739;28;20024;-76
2022/07/14 06:01:48;;;;;;;5.70;2.03;;;;;;;22.33;46.52;98478.78;5089643;28;20028;-77
2022/07/14 06:04:13;;;;;;;3.97;1.55;;;;;;;22.40;46.41;98479.72;5089210;28;20126;-75
2022/07/14 06:06:39;;;;;;;2.10;1.48;;;;;;;22.53;46.10;98477.56;5089897;28;20035;-75
2022/07/14 06:09:04;;;;;;;8.48;2.00;;;;;;;22.63;46.06;98478.88;5071388;28;20028;-77
2022/07/14 06:11:30;;;;;;;2.10;1.48;;;;;;;22.80;46.15;98479.53;5089877;28;20404;-75
2022/07/14 06:13:56;;;;;;;2.05;1.50;;;;;;;22.97;46.11;98478.16;5090734;28;20024;-75
2022/07/14 06:16:21;;;;;;;1.90;1.60;;;;;;;23.13;45.90;98477.94;5090774;28;20027;-75
2022/07/14 06:18:47;;;;;;;7.45;1.98;;;;;;;23.24;45.55;98476.09;5090936;28;20052;-75
2022/07/14 06:21:12;;;;;;;3.17;1.70;;;;;;;23.37;45.33;98482.28;5091054;28;20028;-72
2022/07/14 06:23:38;;;;;;;5.85;1.70;;;;;;;23.47;44.95;98487.16;5090893;28;20020;-74
2022/07/14 06:26:10;;;;;;;1.70;1.50;;;;;;;23.55;44.80;98487.25;5090796;28;20039;-74
2022/07/14 06:28:36;;;;;;;2.78;1.60;;;;;;;23.63;44.54;98486.13;5090734;28;20036;-75
2022/07/14 06:31:03;;;;;;;3.05;1.58;;;;;;;23.70;44.22;98488.19;5090604;28;20111;-74
2022/07/14 06:33:29;;;;;;;2.25;1.80;;;;;;;23.73;44.12;98487.44;5090470;28;20056;-73
2022/07/14 06:35:55;;;;;;;4.28;1.45;;;;;;;23.75;44.07;98488.69;5090542;28;20024;-73
2022/07/14 06:38:20;;;;;;;2.20;1.60;;;;;;;23.79;44.09;98488.69;5090632;28;20028;-74
2022/07/14 06:40:46;;;;;;;3.95;1.73;;;;;;;23.80;44.05;98484.72;5090237;28;20042;-73
2022/07/14 06:43:11;;;;;;;2.83;1.80;;;;;;;23.82;43.93;98492.75;5090164;28;20099;-74
2022/07/14 06:45:38;;;;;;;3.17;1.85;;;;;;;23.86;44.18;98487.97;5089396;28;20408;-74
2022/07/14 06:48:04;;;;;;;3.63;1.70;;;;;;;23.89;44.39;98490.00;5089139;28;20036;-74
2022/07/14 06:50:29;;;;;;;1.77;1.67;;;;;;;23.91;43.85;98484.81;5089839;28;20034;-75
2022/07/14 06:52:55;;;;;;;3.92;1.80;;;;;;;23.93;43.63;98482.44;5088822;28;20020;-73
2022/07/14 06:55:20;;;;;;;2.80;1.90;;;;;;;23.94;43.67;98478.44;5093245;28;20059;-75
2022/07/14 06:57:46;;;;;;;2.95;1.95;;;;;;;23.95;43.87;98482.84;5092928;28;20099;-75
2022/07/14 07:00:12;;;;;;;3.25;1.80;;;;;;;23.98;43.69;98478.50;5093588;28;20035;-72
2022/07/14 07:02:37;;;;;;;2.10;1.50;;;;;;;24.01;43.80;98477.75;5088210;28;20043;-74
2022/07/14 07:07:49;;;;;;;3.40;2.00;;;;;;;24.13;44.02;98482.25;5091498;28;20042;-75
2022/07/14 07:10:14;;;;;;;2.47;2.08;;;;;;;24.19;44.19;98483.50;5092951;28;20460;-72
2022/07/14 07:12:40;;;;;;;6.88;2.08;;;;;;;24.25;43.88;98493.13;5092631;28;20089;-71
2022/07/14 07:15:06;;;;;;;3.47;1.92;;;;;;;24.32;43.16;98476.38;5092526;28;20034;-73
2022/07/14 07:17:31;;;;;;;4.40;1.77;;;;;;;24.35;42.95;98478.41;5090990;28;20042;-75
2022/07/14 07:19:57;;;;;;;2.80;1.80;;;;;;;24.38;43.02;98479.66;5089838;28;20385;-73
2022/07/14 07:22:22;;;;;;;6.90;2.63;;;;;;;24.44;42.93;98478.09;5089587;28;20036;-74
2022/07/14 07:24:47;;;;;;;3.53;2.10;;;;;;;24.50;42.50;98486.94;5092385;28;20054;-75
2022/07/14 07:27:13;;;;;;;4.22;1.95;;;;;;;24.55;42.29;98472.56;5092648;28;20024;-72
2022/07/14 07:29:38;;;;;;;5.65;2.00;;;;;;;24.59;42.11;98478.16;5090598;28;20369;-73
2022/07/14 07:32:04;;;;;;;2.20;1.83;;;;;;;24.62;42.29;98466.19;5091185;28;20539;-73
2022/07/14 07:34:31;;;;;;;4.82;2.10;;;;;;;24.65;42.55;98469.03;5092897;28;20028;-74
2022/07/14 07:36:56;;;;;;;2.45;2.08;;;;;;;24.76;42.78;98463.50;5091144;28;20020;-74
2022/07/14 07:39:21;;;;;;;4.38;2.15;;;;;;;24.84;42.60;98471.97;5092567;28;20031;-73
2022/07/14 07:41:47;;;;;;;3.22;1.85;;;;;;;24.89;43.00;98465.94;5090252;28;20036;-74
2022/07/14 07:44:12;;;;;;;3.97;2.05;;;;;;;24.96;42.74;98460.38;5092244;28;20025;-74
2022/07/14 07:46:38;;;;;;;2.22;2.03;;;;;;;25.01;42.47;98467.63;5091303;28;20027;-77
2022/07/14 07:49:03;;;;;;;2.80;2.00;;;;;;;25.07;42.43;98466.03;5090393;28;20114;-77
2022/07/14 07:51:29;;;;;;;3.08;2.17;;;;;;;25.10;40.99;98466.06;5088287;28;20036;-75
2022/07/14 07:53:54;;;;;;;2.70;2.00;;;;;;;25.14;41.16;98468.09;5091274;28;20031;-77
2022/07/14 07:56:20;;;;;;;3.30;2.20;;;;;;;25.16;40.83;98466.47;5091112;28;20468;-76
2022/07/14 07:58:45;;;;;;;4.63;2.10;;;;;;;25.15;41.21;98464.06;5069537;28;20024;-74
2022/07/14 08:01:11;;;;;;;4.20;2.10;;;;;;;25.21;40.95;98462.50;5089448;28;20030;-77
2022/07/14 08:03:37;;;;;;;3.30;2.20;;;;;;;25.20;40.94;98463.69;5089280;28;20373;-77
2022/07/14 08:06:02;;;;;;;4.15;2.35;;;;;;;25.23;41.35;98465.72;5088961;28;20028;-76
2022/07/14 08:08:28;;;;;;;3.42;2.20;;;;;;;25.33;41.01;98466.94;5090087;28;20036;-77
2022/07/14 08:10:54;;;;;;;3.70;2.50;;;;;;;25.38;40.36;98464.56;5092322;28;20388;-77
2022/07/14 08:13:19;;;;;;;3.53;2.40;;;;;;;25.42;40.34;98467.38;5087558;28;20107;-73
2022/07/14 08:15:44;;;;;;;4.22;2.30;;;;;;;25.45;40.00;98465.81;5087132;28;20498;-74
2022/07/14 08:18:10;;;;;;;3.80;2.53;;;;;;;25.48;40.44;98463.00;5090516;28;20042;-75
2022/07/14 08:20:36;;;;;;;4.15;2.35;;;;;;;25.50;40.23;98462.63;5090759;28;20488;-74
2022/07/14 08:23:02;;;;;;;3.42;2.10;;;;;;;25.56;39.96;98472.25;5090202;28;20024;-75
2022/07/14 08:25:28;;;;;;;7.43;2.50;;;;;;;25.60;40.64;98467.47;5089714;28;20035;-80
2022/07/14 08:27:53;;;;;;;5.38;2.15;;;;;;;25.65;40.33;98469.06;5090508;28;20077;-74
2022/07/14 08:30:20;;;;;;;12.25;2.60;;;;;;;25.69;39.69;98467.84;5090642;28;20454;-73
2022/07/14 08:32:49;;;;;;;3.10;2.28;;;;;;;25.74;39.30;98477.91;5086536;28;20032;-74
2022/07/14 08:35:16;;;;;;;;;;;;;;;25.78;39.36;98473.09;5087409;28;20031;-74
2022/07/14 08:37:42;;;;;;;2.30;2.05;;;;;;;25.79;38.96;98466.28;5089945;28;19958;-76
2022/07/14 08:40:10;;;;;;;3.25;2.53;;;;;;;25.80;39.35;98472.69;5088984;28;20024;-76
2022/07/14 08:42:37;;;;;;;2.10;1.90;;;;;;;25.83;39.34;98469.91;5070750;28;20017;-77
2022/07/14 08:45:09;;;;;;;3.75;2.28;;;;;;;25.87;38.59;98461.47;5089433;28;20024;-78
2022/07/14 08:47:35;;;;;;;3.13;2.20;;;;;;;25.93;38.55;98461.88;5086450;28;20074;-74
2022/07/14 08:50:04;;;;;;;2.63;1.90;;;;;;;25.97;37.85;98465.47;5088174;28;20063;-74
2022/07/14 08:52:31;;;;;;;4.13;2.33;;;;;;;26.04;38.04;98465.50;5087791;28;20361;-75
2022/07/14 08:54:58;;;;;;;2.58;2.10;;;;;;;26.09;37.14;98459.47;5088395;28;20468;-76
2022/07/14 08:57:23;;;;;;;2.67;2.40;;;;;;;26.13;37.69;98454.69;5087858;28;20032;-75
2022/07/14 08:59:49;;;;;;;2.33;2.05;;;;;;;26.16;37.94;98453.06;5085567;28;20031;-74
2022/07/14 09:02:14;;;;;;;4.22;2.45;;;;;;;26.19;38.51;98445.84;5088581;28;20032;-75
2022/07/14 09:04:44;;;;;;;4.85;2.30;;;;;;;26.28;37.98;98452.66;5088736;28;20111;-76
2022/07/14 09:07:10;;;;;;;4.40;2.03;;;;;;;26.31;38.47;98448.25;5089155;28;20027;-76
2022/07/14 09:09:37;;;;;;;3.67;2.28;;;;;;;26.40;38.08;98447.84;5090340;28;20093;-76
2022/07/14 09:12:07;;;;;;;3.10;2.30;;;;;;;26.49;38.05;98451.06;5090520;28;20415;-76
2022/07/14 09:17:25;;;;;;;;;;;;;;;26.58;37.74;98447.81;5088795;28;20177;-78
2022/07/14 09:20:06;;;;;;;4.50;1.90;;;;;;;26.63;38.05;98440.97;5087691;28;19920;-77
2022/07/14 09:22:33;;;;;;;5.35;2.30;;;;;;;26.64;38.13;98437.75;5087611;28;20024;-78
2022/07/14 09:25:01;;;;;;;5.55;2.22;;;;;;;26.67;37.74;98428.50;5088993;28;20546;-79
2022/07/14 09:27:26;;;;;;;3.20;2.00;;;;;;;26.71;37.88;98431.31;5070594;28;20466;-76
2022/07/14 09:29:58;;;;;;;2.60;1.85;;;;;;;26.79;37.72;98430.06;5088466;28;20024;-76
2022/07/14 09:32:56;;;;;;;2.40;2.15;;;;;;;26.90;38.03;98427.25;5088320;28;20028;-75
2022/07/14 09:35:42;;;;;;;3.88;2.42;;;;;;;27.27;38.16;98422.28;5088180;28;20035;-74
2022/07/14 09:38:19;;;;;;;3.95;2.45;;;;;;;27.60;37.65;98426.50;5088340;28;20123;-76
2022/07/14 09:40:45;;;;;;;6.53;2.30;;;;;;;27.83;37.26;98442.06;5088320;28;20058;-75
2022/07/14 09:43:14;;;;;;;3.10;2.08;;;;;;;27.94;36.38;98441.97;5085916;28;20067;-74
2022/07/14 09:45:46;;;;;;;3.92;2.20;;;;;;;27.92;36.41;98433.91;5088539;28;20054;-76
2022/07/14 09:48:13;;;;;;;4.53;2.22;;;;;;;27.92;35.82;98424.66;5089174;28;20089;-75
2022/07/14 09:50:45;;;;;;;3.75;2.05;;;;;;;27.92;36.24;98424.66;5088946;28;20036;-74
2022/07/14 09:53:27;;;;;;;3.78;2.20;;;;;;;28.08;36.32;98424.13;5088875;28;20404;-74
2022/07/14 09:55:57;;;;;;;2.47;2.28;;;;;;;28.25;36.11;98430.84;5089093;28;20410;-76
2022/07/14 09:58:28;;;;;;;3.47;2.30;;;;;;;28.32;36.05;98427.97;5089222;28;20097;-77
2022/07/14 10:01:03;;;;;;;3.50;2.47;;;;;;;28.41;35.46;98426.69;5085078;28;20055;-77
2022/07/14 10:03:31;;;;;;;3.67;2.17;;;;;;;28.58;36.02;98417.22;5088514;28;20123;-77
2022/07/14 10:05:59;;;;;;;5.70;2.28;;;;;;;28.86;34.86;98417.34;5070569;28;20032;-76
2022/07/14 10:08:46;;;;;;;5.10;2.10;;;;;;;29.02;35.57;98409.09;5087913;28;20039;-79
2022/07/14 10:11:12;;;;;;;3.25;2.20;;;;;;;29.07;35.28;98407.81;5071417;28;20032;-75
2022/07/14 10:13:39;;;;;;;5.18;2.25;;;;;;;29.09;35.38;98417.47;5087157;28;20522;-77
2022/07/14 10:16:05;;;;;;;3.95;2.60;;;;;;;29.06;34.96;98412.66;5088051;28;20107;-76
2022/07/14 10:18:32;;;;;;;2.50;2.30;;;;;;;28.97;35.36;98406.72;5088818;28;20093;-81
2022/07/14 10:20:59;;;;;;;3.60;2.33;;;;;;;28.96;35.29;98408.75;5085864;28;20761;-78
2022/07/14 10:23:26;;;;;;;3.88;2.10;;;;;;;28.99;35.26;98411.94;5068314;28;20428;-77
2022/07/14 10:25:59;;;;;;;2.63;2.13;;;;;;;28.97;34.98;98401.09;5086057;28;20080;-76
2022/07/14 10:28:26;;;;;;;5.45;2.35;;;;;;;28.96;34.94;98402.31;5088306;28;20027;-73
2022/07/14 10:30:57;;;;;;;2.17;1.88;;;;;;;29.01;35.01;98395.38;5086346;28;20039;-75
2022/07/14 10:33:48;;;;;;;6.85;2.67;;;;;;;29.07;35.31;98396.50;5088510;28;20140;-76
2022/07/14 10:36:23;;;;;;;3.75;2.10;;;;;;;29.29;35.07;98384.94;5086856;28;20036;-75
2022/07/14 10:39:22;;;;;;;7.30;2.50;;;;;;;29.46;34.45;98386.72;5087261;28;20081;-78
2022/07/14 10:41:59;;;;;;;2.80;2.35;;;;;;;29.58;34.09;98390.97;5081994;28;20636;-74
2022/07/14 10:44:29;;;;;;;8.85;2.97;;;;;;;29.78;34.04;98382.56;5088945;28;20036;-77
2022/07/14 10:47:09;;;;;;;4.95;2.60;;;;;;;30.04;34.18;98377.34;5082921;28;20028;-79
2022/07/14 10:50:00;;;;;;;3.35;2.20;;;;;;;30.16;33.10;98384.41;5070017;28;20028;-78
2022/07/14 10:52:27;;;;;;;4.70;2.70;;;;;;;30.20;32.98;98379.47;5085354;28;20063;-76
2022/07/14 10:55:22;;;;;;;2.35;1.88;;;;;;;30.26;33.41;98386.25;5088724;28;20035;-74
2022/07/14 10:58:04;;;;;;;2.75;2.25;;;;;;;30.23;33.03;98378.63;5083810;28;20039;-78
2022/07/14 11:00:44;;;;;;;4.30;2.35;;;;;;;30.32;33.51;98374.44;5085744;28;20472;-78
2022/07/14 11:03:39;;;;;;;3.22;1.90;;;;;;;30.41;32.97;98375.44;5085026;28;20066;-77
2022/07/14 11:06:08;;;;;;;2.97;2.15;;;;;;;30.53;32.78;98368.34;5087436;28;20024;-76
2022/07/14 11:08:42;;;;;;;5.53;2.22;;;;;;;30.59;31.73;98368.66;5088798;28;20032;-80
2022/07/14 11:11:19;;;;;;;4.25;2.20;;;;;;;30.53;32.08;98364.72;5082261;28;20081;-74
2022/07/14 11:13:59;;;;;;;2.00;1.80;;;;;;;30.52;32.43;98355.44;5086878;28;20659;-74
2022/07/14 11:16:55;;;;;;;5.97;2.53;;;;;;;30.69;32.30;98364.03;5087316;28;20032;-76
2022/07/14 11:19:33;;;;;;;3.38;2.30;;;;;;;30.90;32.08;98351.47;5086764;28;20404;-75
2022/07/14 11:22:17;;;;;;;4.40;2.20;;;;;;;30.97;31.16;98354.16;5084740;28;20111;-79
2022/07/14 11:24:46;;;;;;;2.67;1.90;;;;;;;30.87;32.08;98350.28;5084263;28;20492;-75
2022/07/14 11:27:32;;;;;;;2.10;1.90;;;;;;;30.95;31.47;98348.13;5086303;28;20035;-75
2022/07/14 11:30:17;;;;;;;4.53;2.00;;;;;;;30.95;32.00;98358.63;5087366;28;20077;-77
2022/07/14 11:32:43;;;;;;;2.20;2.00;;;;;;;30.95;31.41;98352.97;5068234;28;20036;-76
2022/07/14 11:37:57;;;;;;;2.50;2.05;;;;;;;30.80;32.42;98350.44;5086375;28;20073;-84
2022/07/14 11:40:42;;;;;;;3.28;2.05;;;;;;;30.72;32.09;98351.84;5089036;28;20027;-77
2022/07/14 11:43:29;;;;;;;3.00;2.00;;;;;;;30.55;32.29;98353.78;5087888;28;20858;-80
2022/07/14 11:46:04;;;;;;;3.22;2.08;;;;;;;30.40;32.29;98358.91;5089597;28;20398;-75
2022/07/14 11:48:32;;;;;;;3.13;1.80;;;;;;;30.25;31.96;98347.88;5090585;28;20055;-77
2022/07/14 11:51:04;;;;;;;2.50;2.00;;;;;;;30.19;32.29;98346.78;5090483;28;20044;-78